createdAt,value
2018-01-12T00:00:16.628Z,1038.68
2018-01-12T00:01:16.618Z,1038.72
2018-01-12T00:02:16.604Z,1038.72
2018-01-12T00:03:16.590Z,1038.77
2018-01-12T00:04:16.576Z,1038.75
2018-01-12T00:05:16.564Z,1038.79
2018-01-12T00:06:16.547Z,1038.76
2018-01-12T00:07:16.537Z,1038.74
2018-01-12T00:08:16.521Z,1038.73
2018-01-12T00:09:16.508Z,1038.71
2018-01-12T00:10:16.495Z,1038.71
2018-01-12T00:11:16.488Z,1038.67
2018-01-12T00:12:16.468Z,1038.64
2018-01-12T00:13:16.455Z,1038.64
2018-01-12T00:14:16.442Z,1038.63
2018-01-12T00:15:16.428Z,1038.65
2018-01-12T00:16:16.417Z,1038.63
2018-01-12T00:17:16.403Z,1038.6
2018-01-12T00:18:16.388Z,1038.62
2018-01-12T00:19:16.376Z,1038.66
2018-01-12T00:20:16.362Z,1038.7
2018-01-12T00:21:16.349Z,1038.76
2018-01-12T00:22:16.336Z,1038.8
2018-01-12T00:23:16.323Z,1038.85
2018-01-12T00:24:16.309Z,1038.91
2018-01-12T00:25:16.296Z,1038.9
2018-01-12T00:26:16.286Z,1038.94
2018-01-12T00:27:16.270Z,1038.91
2018-01-12T00:28:16.256Z,1038.94
2018-01-12T00:29:16.245Z,1038.92
2018-01-12T00:30:16.230Z,1038.97
2018-01-12T00:31:16.219Z,1039.04
2018-01-12T00:32:16.204Z,1039.04
2018-01-12T00:33:16.196Z,1039.15
2018-01-12T00:34:16.178Z,1039.15
2018-01-12T00:35:16.162Z,1039.27
2018-01-12T00:36:16.149Z,1039.3
2018-01-12T00:37:16.137Z,1039.39
2018-01-12T00:38:16.123Z,1039.42
2018-01-12T00:39:16.111Z,1039.45
2018-01-12T00:40:16.098Z,1039.46
2018-01-12T00:41:16.085Z,1039.45
2018-01-12T00:42:16.071Z,1039.49
2018-01-12T00:43:16.055Z,1039.44
2018-01-12T00:44:16.045Z,1039.48
2018-01-12T00:45:16.033Z,1039.44
2018-01-12T00:46:16.015Z,1039.49
2018-01-12T00:47:16.003Z,1039.47
2018-01-12T00:48:15.992Z,1039.46
2018-01-12T00:49:15.974Z,1039.47
2018-01-12T00:50:15.963Z,1039.49
2018-01-12T00:51:15.949Z,1039.44
2018-01-12T00:52:15.932Z,1039.47
2018-01-12T00:53:15.922Z,1039.45
2018-01-12T00:54:15.908Z,1039.42
2018-01-12T00:55:15.892Z,1039.45
2018-01-12T00:56:15.878Z,1039.48
2018-01-12T00:57:15.865Z,1039.47
2018-01-12T00:58:15.851Z,1039.48
2018-01-12T00:59:15.839Z,1039.5
2018-01-12T01:00:15.827Z,1039.48
2018-01-12T01:01:15.809Z,1039.49
2018-01-12T01:02:15.796Z,1039.48
2018-01-12T01:03:15.785Z,1039.48
2018-01-12T01:04:15.771Z,1039.48
2018-01-12T01:05:15.755Z,1039.53
2018-01-12T01:06:15.743Z,1039.52
2018-01-12T01:07:15.731Z,1039.55
2018-01-12T01:08:15.718Z,1039.59
2018-01-12T01:09:15.703Z,1039.54
2018-01-12T01:10:15.690Z,1039.59
2018-01-12T01:11:15.676Z,1039.63
2018-01-12T01:12:15.663Z,1039.64
2018-01-12T01:13:15.646Z,1039.67
2018-01-12T01:14:15.632Z,1039.7
2018-01-12T01:15:15.623Z,1039.73
2018-01-12T01:16:15.608Z,1039.78
2018-01-12T01:17:15.595Z,1039.81
2018-01-12T01:18:15.578Z,1039.86
2018-01-12T01:19:15.567Z,1039.89
2018-01-12T01:20:15.550Z,1039.9
2018-01-12T01:21:15.539Z,1039.96
2018-01-12T01:22:15.527Z,1039.96
2018-01-12T01:23:15.511Z,1040.05
2018-01-12T01:24:15.495Z,1040.06
2018-01-12T01:25:15.482Z,1040.08
2018-01-12T01:26:15.470Z,1040.1
2018-01-12T01:27:15.457Z,1040.1
2018-01-12T01:28:15.440Z,1040.12
2018-01-12T01:29:15.428Z,1040.12
2018-01-12T01:30:15.413Z,1040.07
2018-01-12T01:31:15.404Z,1040.02
2018-01-12T01:32:15.385Z,1040
2018-01-12T01:33:15.372Z,1039.95
2018-01-12T01:34:15.360Z,1039.9
2018-01-12T01:35:15.347Z,1039.98
2018-01-12T01:36:15.332Z,1040.04
2018-01-12T01:37:15.325Z,1040.03
2018-01-12T01:38:15.303Z,1039.99
2018-01-12T01:39:15.288Z,1039.99
2018-01-12T01:40:15.278Z,1039.96
2018-01-12T01:41:15.260Z,1039.91
2018-01-12T01:42:15.249Z,1039.9
2018-01-12T01:43:15.233Z,1039.91
2018-01-12T01:44:15.223Z,1039.85
2018-01-12T01:45:15.206Z,1039.88
2018-01-12T01:46:15.194Z,1039.87
2018-01-12T01:47:15.178Z,1039.91
2018-01-12T01:48:15.163Z,1039.92
2018-01-12T01:49:15.152Z,1039.96
2018-01-12T01:50:15.139Z,1039.96
2018-01-12T01:51:15.123Z,1039.97
2018-01-12T01:52:15.108Z,1039.97
2018-01-12T01:53:15.096Z,1039.94
2018-01-12T01:54:15.084Z,1039.95
2018-01-12T01:55:15.069Z,1039.96
2018-01-12T01:56:15.054Z,1040.02
2018-01-12T01:57:15.044Z,1040.1
2018-01-12T01:58:15.029Z,1040.15
2018-01-12T01:59:15.013Z,1040.16
2018-01-12T02:00:15.002Z,1040.23
2018-01-12T02:01:14.987Z,1040.23
2018-01-12T02:02:14.976Z,1040.23
2018-01-12T02:03:14.959Z,1040.23
2018-01-12T02:04:14.951Z,1040.2
2018-01-12T02:05:14.934Z,1040.17
2018-01-12T02:06:14.916Z,1040.2
2018-01-12T02:07:14.903Z,1040.14
2018-01-12T02:08:14.892Z,1040.11
2018-01-12T02:09:14.875Z,1040.14
2018-01-12T02:10:14.865Z,1040.16
2018-01-12T02:11:14.848Z,1040.15
2018-01-12T02:12:14.834Z,1040.1
2018-01-12T02:13:14.823Z,1040.05
2018-01-12T02:14:14.809Z,1040.04
2018-01-12T02:15:14.793Z,1040
2018-01-12T02:16:14.779Z,1039.97
2018-01-12T02:17:14.769Z,1039.95
2018-01-12T02:18:14.751Z,1039.94
2018-01-12T02:19:14.742Z,1040
2018-01-12T02:20:14.726Z,1039.99
2018-01-12T02:21:14.713Z,1039.99
2018-01-12T02:22:14.699Z,1039.99
2018-01-12T02:23:14.690Z,1040
2018-01-12T02:24:14.671Z,1039.99
2018-01-12T02:25:14.656Z,1040.03
2018-01-12T02:26:14.641Z,1040.01
2018-01-12T02:27:14.632Z,1040.05
2018-01-12T02:28:14.614Z,1040.05
2018-01-12T02:29:14.601Z,1040.02
2018-01-12T02:30:14.588Z,1040.03
2018-01-12T02:31:14.577Z,1040.05
2018-01-12T02:32:14.562Z,1040.03
2018-01-12T02:33:14.548Z,1040.13
2018-01-12T02:34:14.534Z,1040.14
2018-01-12T02:35:14.520Z,1040.18
2018-01-12T02:36:14.507Z,1040.19
2018-01-12T02:37:14.495Z,1040.32
2018-01-12T02:38:14.479Z,1040.36
2018-01-12T02:39:14.467Z,1040.38
2018-01-12T02:40:14.451Z,1040.38
2018-01-12T02:41:14.439Z,1040.36
2018-01-12T02:42:14.429Z,1040.4
2018-01-12T02:43:14.410Z,1040.38
2018-01-12T02:44:14.399Z,1040.39
2018-01-12T02:45:14.386Z,1040.4
2018-01-12T02:46:14.381Z,1040.41
2018-01-12T02:47:14.357Z,1040.38
2018-01-12T02:48:14.345Z,1040.36
2018-01-12T02:49:14.331Z,1040.4
2018-01-12T02:50:14.314Z,1040.41
2018-01-12T02:51:14.304Z,1040.5
2018-01-12T02:52:14.288Z,1040.48
2018-01-12T02:53:14.275Z,1040.51
2018-01-12T02:54:14.261Z,1040.56
2018-01-12T02:55:14.247Z,1040.53
2018-01-12T02:56:14.235Z,1040.56
2018-01-12T02:57:14.222Z,1040.55
2018-01-12T02:58:14.205Z,1040.55
2018-01-12T02:59:14.194Z,1040.53
2018-01-12T03:00:14.178Z,1040.53
2018-01-12T03:01:14.166Z,1040.53
2018-01-12T03:02:14.153Z,1040.51
2018-01-12T03:03:14.137Z,1040.48
2018-01-12T03:04:14.124Z,1040.49
2018-01-12T03:05:14.112Z,1040.44
2018-01-12T03:06:14.098Z,1040.44
2018-01-12T03:07:14.092Z,1040.42
2018-01-12T03:08:14.072Z,1040.46
2018-01-12T03:09:14.054Z,1040.42
2018-01-12T03:10:14.042Z,1040.53
2018-01-12T03:11:14.030Z,1040.48
2018-01-12T03:12:14.016Z,1040.49
2018-01-12T03:13:14.000Z,1040.46
2018-01-12T03:14:13.986Z,1040.45
2018-01-12T03:15:13.982Z,1040.48
2018-01-12T03:16:13.961Z,1040.5
2018-01-12T03:17:13.954Z,1040.57
2018-01-12T03:18:13.932Z,1040.6
2018-01-12T03:19:13.922Z,1040.66
2018-01-12T03:20:13.905Z,1040.69
2018-01-12T03:21:13.890Z,1040.71
2018-01-12T03:22:13.876Z,1040.69
2018-01-12T03:23:13.862Z,1040.72
2018-01-12T03:24:13.849Z,1040.75
2018-01-12T03:25:13.836Z,1040.77
2018-01-12T03:26:13.822Z,1040.82
2018-01-12T03:27:13.808Z,1040.8
2018-01-12T03:28:13.794Z,1040.82
2018-01-12T03:29:13.784Z,1040.84
2018-01-12T03:30:13.769Z,1040.87
2018-01-12T03:31:13.757Z,1040.82
2018-01-12T03:32:13.745Z,1040.78
2018-01-12T03:33:13.732Z,1040.8
2018-01-12T03:34:13.713Z,1040.79
2018-01-12T03:35:13.702Z,1040.81
2018-01-12T03:36:13.687Z,1040.82
2018-01-12T03:37:13.673Z,1040.9
2018-01-12T03:38:13.661Z,1040.95
2018-01-12T03:39:13.645Z,1040.97
2018-01-12T03:40:13.636Z,1040.96
2018-01-12T03:41:13.619Z,1040.99
2018-01-12T03:42:13.603Z,1040.98
2018-01-12T03:43:13.589Z,1041.03
2018-01-12T03:44:13.576Z,1041.07
2018-01-12T03:45:13.561Z,1041.07
2018-01-12T03:46:13.551Z,1041.11
2018-01-12T03:47:13.534Z,1041.08
2018-01-12T03:48:13.521Z,1041.09
2018-01-12T03:49:13.507Z,1041.14
2018-01-12T03:50:13.494Z,1041.09
2018-01-12T03:51:13.479Z,1041.13
2018-01-12T03:52:13.464Z,1041.11
2018-01-12T03:53:13.451Z,1041.15
2018-01-12T03:54:13.437Z,1041.07
2018-01-12T03:55:13.426Z,1041.1
2018-01-12T03:56:13.409Z,1041.13
2018-01-12T03:57:13.400Z,1041.14
2018-01-12T03:58:13.384Z,1041.22
2018-01-12T03:59:13.370Z,1041.26
2018-01-12T04:00:13.364Z,1041.26
2018-01-12T04:01:13.339Z,1041.3
2018-01-12T04:02:13.325Z,1041.37
2018-01-12T04:03:13.313Z,1041.43
2018-01-12T04:04:13.299Z,1041.43
2018-01-12T04:05:13.283Z,1041.46
2018-01-12T04:06:13.271Z,1041.45
2018-01-12T04:07:13.257Z,1041.43
2018-01-12T04:08:13.240Z,1041.4
2018-01-12T04:09:13.227Z,1041.39
2018-01-12T04:10:13.213Z,1041.44
2018-01-12T04:11:13.199Z,1041.46
2018-01-12T04:12:13.188Z,1041.44
2018-01-12T04:13:13.174Z,1041.45
2018-01-12T04:14:13.159Z,1041.5
2018-01-12T04:15:13.146Z,1041.49
2018-01-12T04:16:13.128Z,1041.52
2018-01-12T04:17:13.118Z,1041.6
2018-01-12T04:18:13.102Z,1041.61
2018-01-12T04:19:13.090Z,1041.59
2018-01-12T04:20:13.072Z,1041.56
2018-01-12T04:21:13.061Z,1041.59
2018-01-12T04:22:13.055Z,1041.59
2018-01-12T04:23:13.040Z,1041.59
2018-01-12T04:24:13.015Z,1041.6
2018-01-12T04:25:13.000Z,1041.59
2018-01-12T04:26:12.987Z,1041.56
2018-01-12T04:27:12.974Z,1041.56
2018-01-12T04:28:12.962Z,1041.59
2018-01-12T04:29:12.944Z,1041.59
2018-01-12T04:30:12.932Z,1041.6
2018-01-12T04:31:12.916Z,1041.58
2018-01-12T04:32:12.902Z,1041.6
2018-01-12T04:33:12.887Z,1041.64
2018-01-12T04:34:12.874Z,1041.65
2018-01-12T04:35:12.886Z,1041.69
2018-01-12T04:36:12.847Z,1041.72
2018-01-12T04:37:12.831Z,1041.72
2018-01-12T04:38:12.818Z,1041.69
2018-01-12T04:39:12.803Z,1041.69
2018-01-12T04:40:12.791Z,1041.74
2018-01-12T04:41:12.775Z,1041.71
2018-01-12T04:42:12.763Z,1041.76
2018-01-12T04:43:12.747Z,1041.74
2018-01-12T04:44:12.735Z,1041.75
2018-01-12T04:45:12.718Z,1041.8
2018-01-12T04:46:12.703Z,1041.77
2018-01-12T04:47:12.689Z,1041.8
2018-01-12T04:48:12.678Z,1041.83
2018-01-12T04:49:12.664Z,1041.77
2018-01-12T04:50:12.650Z,1041.72
2018-01-12T04:51:12.634Z,1041.73
2018-01-12T04:52:12.618Z,1041.71
2018-01-12T04:53:12.606Z,1041.68
2018-01-12T04:54:12.590Z,1041.72
2018-01-12T04:55:12.578Z,1041.72
2018-01-12T04:56:12.564Z,1041.73
2018-01-12T04:57:12.548Z,1041.75
2018-01-12T04:58:12.534Z,1041.78
2018-01-12T04:59:12.519Z,1041.76
2018-01-12T05:00:12.508Z,1041.77
2018-01-12T05:01:12.494Z,1041.77
2018-01-12T05:02:12.476Z,1041.81
2018-01-12T05:03:12.465Z,1041.84
2018-01-12T05:04:12.451Z,1041.82
2018-01-12T05:05:12.435Z,1041.85
2018-01-12T05:06:12.419Z,1041.85
2018-01-12T05:07:12.409Z,1041.87
2018-01-12T05:08:12.392Z,1041.88
2018-01-12T05:09:12.384Z,1041.85
2018-01-12T05:10:12.363Z,1041.85
2018-01-12T05:11:12.350Z,1041.84
2018-01-12T05:12:12.338Z,1041.86
2018-01-12T05:13:12.323Z,1041.87
2018-01-12T05:14:12.309Z,1041.85
2018-01-12T05:15:12.295Z,1041.89
2018-01-12T05:16:12.278Z,1041.88
2018-01-12T05:17:12.263Z,1041.88
2018-01-12T05:18:12.252Z,1041.91
2018-01-12T05:19:12.236Z,1041.95
2018-01-12T05:20:12.222Z,1041.93
2018-01-12T05:21:12.210Z,1041.91
2018-01-12T05:22:12.193Z,1041.88
2018-01-12T05:23:12.179Z,1041.89
2018-01-12T05:24:12.167Z,1041.91
2018-01-12T05:25:12.150Z,1041.94
2018-01-12T05:26:12.139Z,1041.94
2018-01-12T05:27:12.123Z,1041.97
2018-01-12T05:28:12.110Z,1041.96
2018-01-12T05:29:12.096Z,1041.96
2018-01-12T05:30:12.083Z,1041.96
2018-01-12T05:31:12.073Z,1041.9
2018-01-12T05:32:12.051Z,1041.93
2018-01-12T05:33:12.037Z,1041.93
2018-01-12T05:34:12.024Z,1041.95
2018-01-12T05:35:12.011Z,1041.95
2018-01-12T05:36:11.997Z,1041.95
2018-01-12T05:37:11.980Z,1041.92
2018-01-12T05:38:11.969Z,1041.91
2018-01-12T05:39:11.952Z,1041.91
2018-01-12T05:40:11.939Z,1041.88
2018-01-12T05:41:11.927Z,1041.9
2018-01-12T05:42:11.909Z,1041.9
2018-01-12T05:43:11.896Z,1041.91
2018-01-12T05:44:11.883Z,1041.97
2018-01-12T05:45:11.871Z,1042.01
2018-01-12T05:46:11.853Z,1042.05
2018-01-12T05:47:11.839Z,1042.03
2018-01-12T05:48:11.828Z,1042.11
2018-01-12T05:49:11.814Z,1042.13
2018-01-12T05:50:11.797Z,1042.16
2018-01-12T05:51:11.787Z,1042.16
2018-01-12T05:52:11.769Z,1042.19
2018-01-12T05:53:11.757Z,1042.19
2018-01-12T05:54:11.743Z,1042.26
2018-01-12T05:55:11.727Z,1042.31
2018-01-12T05:56:11.713Z,1042.31
2018-01-12T05:57:11.699Z,1042.33
2018-01-12T05:58:11.688Z,1042.31
2018-01-12T05:59:11.671Z,1042.36
2018-01-12T06:00:11.659Z,1042.37
2018-01-12T06:01:11.696Z,1042.41
2018-01-12T06:02:11.632Z,1042.44
2018-01-12T06:03:11.614Z,1042.45
2018-01-12T06:04:11.599Z,1042.45
2018-01-12T06:05:11.585Z,1042.49
2018-01-12T06:06:11.573Z,1042.48
2018-01-12T06:07:11.560Z,1042.49
2018-01-12T06:08:11.542Z,1042.49
2018-01-12T06:09:11.528Z,1042.51
2018-01-12T06:10:11.514Z,1042.46
2018-01-12T06:11:11.505Z,1042.49
2018-01-12T06:12:11.487Z,1042.46
2018-01-12T06:13:11.473Z,1042.46
2018-01-12T06:14:11.459Z,1042.52
2018-01-12T06:15:11.443Z,1042.49
2018-01-12T06:16:11.432Z,1042.53
2018-01-12T06:17:11.415Z,1042.56
2018-01-12T06:18:11.401Z,1042.61
2018-01-12T06:19:11.389Z,1042.61
2018-01-12T06:20:11.375Z,1042.66
2018-01-12T06:21:11.361Z,1042.67
2018-01-12T06:22:11.343Z,1042.74
2018-01-12T06:23:11.358Z,1042.74
2018-01-12T06:24:11.315Z,1042.8
2018-01-12T06:25:11.301Z,1042.83
2018-01-12T06:26:11.286Z,1042.85
2018-01-12T06:27:11.275Z,1042.86
2018-01-12T06:28:11.258Z,1042.94
2018-01-12T06:29:11.246Z,1042.94
2018-01-12T06:30:11.229Z,1042.99
2018-01-12T06:31:11.234Z,1042.97
2018-01-12T06:32:11.204Z,1042.94
2018-01-12T06:33:11.188Z,1042.97
2018-01-12T06:34:11.175Z,1042.99
2018-01-12T06:35:11.158Z,1043.05
2018-01-12T06:36:11.151Z,1043.02
2018-01-12T06:37:11.132Z,1043.03
2018-01-12T06:38:11.121Z,1043.07
2018-01-12T06:39:11.102Z,1043.01
2018-01-12T06:40:11.090Z,1043.04
2018-01-12T06:41:11.073Z,1043.07
2018-01-12T06:42:11.062Z,1043.12
2018-01-12T06:43:11.047Z,1043.13
2018-01-12T06:44:11.032Z,1043.19
2018-01-12T06:45:11.016Z,1043.16
2018-01-12T06:46:11.004Z,1043.19
2018-01-12T06:47:10.987Z,1043.21
2018-01-12T06:48:10.979Z,1043.28
2018-01-12T06:49:10.961Z,1043.26
2018-01-12T06:50:10.944Z,1043.27
2018-01-12T06:51:10.930Z,1043.34
2018-01-12T06:52:10.916Z,1043.32
2018-01-12T06:53:10.902Z,1043.35
2018-01-12T06:54:10.887Z,1043.28
2018-01-12T06:55:10.871Z,1043.28
2018-01-12T06:56:10.857Z,1043.29
2018-01-12T06:57:10.844Z,1043.26
2018-01-12T06:58:10.829Z,1043.24
2018-01-12T06:59:10.814Z,1043.27
2018-01-12T07:00:10.799Z,1043.28
2018-01-12T07:01:10.803Z,1043.29
2018-01-12T07:02:10.773Z,1043.27
2018-01-12T07:03:10.756Z,1043.28
2018-01-12T07:04:10.742Z,1043.32
2018-01-12T07:05:10.730Z,1043.29
2018-01-12T07:06:10.713Z,1043.32
2018-01-12T07:07:10.698Z,1043.31
2018-01-12T07:08:10.684Z,1043.34
2018-01-12T07:09:10.670Z,1043.36
2018-01-12T07:10:10.655Z,1043.32
2018-01-12T07:11:10.643Z,1043.35
2018-01-12T07:12:10.631Z,1043.38
2018-01-12T07:13:10.614Z,1043.4
2018-01-12T07:14:10.600Z,1043.44
2018-01-12T07:15:10.583Z,1043.46
2018-01-12T07:16:10.569Z,1043.46
2018-01-12T07:17:10.556Z,1043.49
2018-01-12T07:18:10.540Z,1043.51
2018-01-12T07:19:10.529Z,1043.51
2018-01-12T07:20:10.514Z,1043.54
2018-01-12T07:21:10.501Z,1043.51
2018-01-12T07:22:10.485Z,1043.47
2018-01-12T07:23:10.471Z,1043.53
2018-01-12T07:24:10.455Z,1043.51
2018-01-12T07:25:10.442Z,1043.51
2018-01-12T07:26:10.424Z,1043.48
2018-01-12T07:27:10.411Z,1043.51
2018-01-12T07:28:10.398Z,1043.55
2018-01-12T07:29:10.380Z,1043.57
2018-01-12T07:30:10.366Z,1043.56
2018-01-12T07:31:10.352Z,1043.52
2018-01-12T07:32:10.340Z,1043.54
2018-01-12T07:33:10.323Z,1043.53
2018-01-12T07:34:10.312Z,1043.5
2018-01-12T07:35:10.294Z,1043.49
2018-01-12T07:36:10.311Z,1043.45
2018-01-12T07:37:10.268Z,1043.46
2018-01-12T07:38:10.253Z,1043.43
2018-01-12T07:39:10.236Z,1043.47
2018-01-12T07:40:10.230Z,1043.45
2018-01-12T07:41:10.215Z,1043.43
2018-01-12T07:42:10.227Z,1043.41
2018-01-12T07:43:10.200Z,1043.42
2018-01-12T07:44:10.179Z,1043.4
2018-01-12T07:45:10.161Z,1043.45
2018-01-12T07:46:10.135Z,1043.46
2018-01-12T07:47:10.122Z,1043.53
2018-01-12T07:48:10.109Z,1043.59
2018-01-12T07:49:10.094Z,1043.65
2018-01-12T07:50:10.081Z,1043.67
2018-01-12T07:51:10.068Z,1043.71
2018-01-12T07:52:10.050Z,1043.73
2018-01-12T07:53:10.054Z,1043.74
2018-01-12T07:54:10.041Z,1043.75
2018-01-12T07:55:10.022Z,1043.76
2018-01-12T07:56:09.998Z,1043.78
2018-01-12T07:57:09.982Z,1043.76
2018-01-12T07:58:09.983Z,1043.8
2018-01-12T07:59:09.971Z,1043.82
2018-01-12T08:00:09.970Z,1043.81
2018-01-12T08:01:09.931Z,1043.8
2018-01-12T08:02:09.925Z,1043.84
2018-01-12T08:03:09.903Z,1043.9
2018-01-12T08:04:09.889Z,1043.86
2018-01-12T08:05:09.872Z,1043.88
2018-01-12T08:06:09.865Z,1043.9
2018-01-12T08:07:09.854Z,1043.88
2018-01-12T08:08:09.826Z,1043.96
2018-01-12T08:09:09.806Z,1043.93
2018-01-12T08:10:09.800Z,1043.93
2018-01-12T08:11:09.785Z,1043.96
2018-01-12T08:12:09.763Z,1043.93
2018-01-12T08:13:09.752Z,1043.93
2018-01-12T08:14:09.750Z,1043.9
2018-01-12T08:15:09.724Z,1043.92
2018-01-12T08:16:09.706Z,1043.89
2018-01-12T08:17:09.692Z,1043.97
2018-01-12T08:18:09.678Z,1043.94
2018-01-12T08:19:09.667Z,1043.94
2018-01-12T08:20:09.660Z,1044.03
2018-01-12T08:21:09.635Z,1044.05
2018-01-12T08:22:09.621Z,1044.06
2018-01-12T08:23:09.609Z,1044.04
2018-01-12T08:24:09.594Z,1044.07
2018-01-12T08:25:09.581Z,1044.08
2018-01-12T08:26:09.564Z,1044.01
2018-01-12T08:27:09.548Z,1044.05
2018-01-12T08:28:09.535Z,1044.08
2018-01-12T08:29:09.521Z,1044.03
2018-01-12T08:30:09.510Z,1044.04
2018-01-12T08:31:09.515Z,1044.05
2018-01-12T08:32:09.488Z,1044.12
2018-01-12T08:33:09.474Z,1044.13
2018-01-12T08:34:09.452Z,1044.12
2018-01-12T08:35:09.439Z,1044.22
2018-01-12T08:36:09.420Z,1044.2
2018-01-12T08:37:09.409Z,1044.18
2018-01-12T08:38:09.443Z,1044.18
2018-01-12T08:39:09.377Z,1044.23
2018-01-12T08:40:09.364Z,1044.25
2018-01-12T08:41:09.348Z,1044.24
2018-01-12T08:42:09.364Z,1044.28
2018-01-12T08:43:09.329Z,1044.31
2018-01-12T08:44:09.318Z,1044.27
2018-01-12T08:45:09.290Z,1044.2
2018-01-12T08:46:09.292Z,1044.24
2018-01-12T08:47:09.267Z,1044.2
2018-01-12T08:48:09.248Z,1044.24
2018-01-12T08:49:09.233Z,1044.24
2018-01-12T08:50:09.220Z,1044.26
2018-01-12T08:51:09.205Z,1044.31
2018-01-12T08:52:09.189Z,1044.29
2018-01-12T08:53:09.177Z,1044.29
2018-01-12T08:54:09.163Z,1044.25
2018-01-12T08:55:09.150Z,1044.24
2018-01-12T08:56:09.142Z,1044.27
2018-01-12T08:57:09.120Z,1044.22
2018-01-12T08:58:09.107Z,1044.19
2018-01-12T08:59:09.090Z,1044.19
2018-01-12T09:00:09.075Z,1044.15
2018-01-12T09:01:09.067Z,1044.17
2018-01-12T09:02:09.050Z,1044.16
2018-01-12T09:03:09.034Z,1044.19
2018-01-12T09:04:09.018Z,1044.19
2018-01-12T09:05:09.007Z,1044.22
2018-01-12T09:06:08.990Z,1044.18
2018-01-12T09:07:08.979Z,1044.15
2018-01-12T09:08:08.964Z,1044.11
2018-01-12T09:09:08.947Z,1044.07
2018-01-12T09:10:08.941Z,1044.06
2018-01-12T09:11:08.918Z,1044.05
2018-01-12T09:12:08.905Z,1044.02
2018-01-12T09:13:08.890Z,1044.08
2018-01-12T09:14:08.875Z,1044.11
2018-01-12T09:15:08.861Z,1044.1
2018-01-12T09:16:08.852Z,1044.19
2018-01-12T09:17:08.834Z,1044.18
2018-01-12T09:18:08.820Z,1044.19
2018-01-12T09:19:08.813Z,1044.2
2018-01-12T09:20:08.793Z,1044.23
2018-01-12T09:21:08.779Z,1044.22
2018-01-12T09:22:08.766Z,1044.27
2018-01-12T09:23:08.754Z,1044.29
2018-01-12T09:24:08.734Z,1044.3
2018-01-12T09:25:08.723Z,1044.32
2018-01-12T09:26:08.708Z,1044.3
2018-01-12T09:27:08.695Z,1044.3
2018-01-12T09:28:08.681Z,1044.26
2018-01-12T09:29:08.663Z,1044.22
2018-01-12T09:30:08.655Z,1044.19
2018-01-12T09:31:08.636Z,1044.19
2018-01-12T09:32:08.632Z,1044.15
2018-01-12T09:33:08.607Z,1044.18
2018-01-12T09:34:08.596Z,1044.27
2018-01-12T09:35:08.582Z,1044.25
2018-01-12T09:36:08.568Z,1044.23
2018-01-12T09:37:08.551Z,1044.25
2018-01-12T09:38:08.540Z,1044.2
2018-01-12T09:39:08.524Z,1044.18
2018-01-12T09:40:08.513Z,1044.17
2018-01-12T09:41:08.495Z,1044.22
2018-01-12T09:42:08.481Z,1044.15
2018-01-12T09:43:08.467Z,1044.17
2018-01-12T09:44:08.453Z,1044.13
2018-01-12T09:45:08.443Z,1044.17
2018-01-12T09:46:08.445Z,1044.19
2018-01-12T09:47:08.423Z,1044.21
2018-01-12T09:48:08.403Z,1044.21
2018-01-12T09:49:08.387Z,1044.3
2018-01-12T09:50:08.370Z,1044.27
2018-01-12T09:51:08.359Z,1044.3
2018-01-12T09:52:08.343Z,1044.28
2018-01-12T09:53:08.330Z,1044.26
2018-01-12T09:54:08.316Z,1044.29
2018-01-12T09:55:08.301Z,1044.27
2018-01-12T09:56:08.302Z,1044.27
2018-01-12T09:57:08.284Z,1044.22
2018-01-12T09:58:08.261Z,1044.17
2018-01-12T09:59:08.276Z,1044.14
2018-01-12T10:00:08.234Z,1044.15
2018-01-12T10:01:08.223Z,1044.16
2018-01-12T10:02:08.207Z,1044.19
2018-01-12T10:03:08.189Z,1044.22
2018-01-12T10:04:08.176Z,1044.2
2018-01-12T10:05:08.161Z,1044.18
2018-01-12T10:06:08.149Z,1044.15
2018-01-12T10:07:08.134Z,1044.23
2018-01-12T10:08:08.135Z,1044.23
2018-01-12T10:09:08.125Z,1044.27
2018-01-12T10:10:08.100Z,1044.26
2018-01-12T10:11:08.095Z,1044.25
2018-01-12T10:12:08.091Z,1044.25
2018-01-12T10:13:08.083Z,1044.26
2018-01-12T10:14:08.042Z,1044.28
2018-01-12T10:15:08.027Z,1044.27
2018-01-12T10:16:08.011Z,1044.23
2018-01-12T10:17:07.994Z,1044.2
2018-01-12T10:18:07.982Z,1044.19
2018-01-12T10:19:07.970Z,1044.16
2018-01-12T10:20:07.956Z,1044.12
2018-01-12T10:21:07.958Z,1044.07
2018-01-12T10:22:07.925Z,1044.14
2018-01-12T10:23:07.914Z,1044.14
2018-01-12T10:24:07.926Z,1044.11
2018-01-12T10:25:07.886Z,1044.16
2018-01-12T10:26:07.870Z,1044.11
2018-01-12T10:27:07.859Z,1043.98
2018-01-12T10:28:07.844Z,1043.98
2018-01-12T10:29:07.832Z,1043.99
2018-01-12T10:30:07.818Z,1044.01
2018-01-12T10:31:07.801Z,1044
2018-01-12T10:32:07.787Z,1043.97
2018-01-12T10:33:07.779Z,1043.99
2018-01-12T10:34:07.764Z,1043.99
2018-01-12T10:35:07.748Z,1043.98
2018-01-12T10:36:07.734Z,1043.97
2018-01-12T10:37:07.720Z,1043.96
2018-01-12T10:38:07.720Z,1043.99
2018-01-12T10:39:07.691Z,1043.95
2018-01-12T10:40:07.684Z,1043.95
2018-01-12T10:41:07.667Z,1043.92
2018-01-12T10:42:07.651Z,1043.98
2018-01-12T10:43:07.662Z,1043.97
2018-01-12T10:44:07.629Z,1043.96
2018-01-12T10:45:07.608Z,1043.99
2018-01-12T10:46:07.602Z,1044.04
2018-01-12T10:47:07.582Z,1044.04
2018-01-12T10:48:07.569Z,1044.04
2018-01-12T10:49:07.557Z,1044.04
2018-01-12T10:50:07.543Z,1044.07
2018-01-12T10:51:07.533Z,1044.1
2018-01-12T10:52:07.514Z,1044.12
2018-01-12T10:53:07.500Z,1044.14
2018-01-12T10:54:07.486Z,1044.19
2018-01-12T10:55:07.473Z,1044.27
2018-01-12T10:56:07.465Z,1044.34
2018-01-12T10:57:07.446Z,1044.31
2018-01-12T10:58:07.434Z,1044.31
2018-01-12T10:59:07.419Z,1044.29
2018-01-12T11:00:07.405Z,1044.24
2018-01-12T11:01:07.406Z,1044.27
2018-01-12T11:02:07.391Z,1044.28
2018-01-12T11:03:07.571Z,1044.32
2018-01-12T11:04:07.350Z,1044.36
2018-01-12T11:05:07.340Z,1044.36
2018-01-12T11:06:07.342Z,1044.44
2018-01-12T11:07:07.312Z,1044.37
2018-01-12T11:08:07.295Z,1044.41
2018-01-12T11:09:07.282Z,1044.35
2018-01-12T11:10:07.279Z,1044.37
2018-01-12T11:11:07.254Z,1044.4
2018-01-12T11:12:07.241Z,1044.37
2018-01-12T11:13:07.227Z,1044.4
2018-01-12T11:14:07.215Z,1044.44
2018-01-12T11:15:07.204Z,1044.49
2018-01-12T11:16:07.190Z,1044.48
2018-01-12T11:17:07.173Z,1044.44
2018-01-12T11:18:07.163Z,1044.49
2018-01-12T11:19:07.147Z,1044.52
2018-01-12T11:20:07.133Z,1044.57
2018-01-12T11:21:07.118Z,1044.59
2018-01-12T11:22:07.104Z,1044.62
2018-01-12T11:23:07.104Z,1044.65
2018-01-12T11:24:07.077Z,1044.63
2018-01-12T11:25:07.075Z,1044.7
2018-01-12T11:26:07.051Z,1044.7
2018-01-12T11:27:07.040Z,1044.72
2018-01-12T11:28:07.023Z,1044.65
2018-01-12T11:29:07.008Z,1044.71
2018-01-12T11:30:06.997Z,1044.67
2018-01-12T11:31:06.981Z,1044.68
2018-01-12T11:32:06.969Z,1044.71
2018-01-12T11:33:06.953Z,1044.65
2018-01-12T11:34:06.951Z,1044.61
2018-01-12T11:35:06.936Z,1044.59
2018-01-12T11:36:06.916Z,1044.64
2018-01-12T11:37:06.898Z,1044.66
2018-01-12T11:38:06.884Z,1044.58
2018-01-12T11:39:06.875Z,1044.64
2018-01-12T11:40:06.856Z,1044.63
2018-01-12T11:41:06.844Z,1044.61
2018-01-12T11:42:06.831Z,1044.63
2018-01-12T11:43:06.821Z,1044.63
2018-01-12T11:44:06.801Z,1044.56
2018-01-12T11:45:06.791Z,1044.57
2018-01-12T11:46:06.790Z,1044.6
2018-01-12T11:47:06.767Z,1044.61
2018-01-12T11:48:06.764Z,1044.61
2018-01-12T11:49:06.732Z,1044.68
2018-01-12T11:50:06.718Z,1044.68
2018-01-12T11:51:06.704Z,1044.7
2018-01-12T11:52:06.690Z,1044.68
2018-01-12T11:53:06.677Z,1044.72
2018-01-12T11:54:06.666Z,1044.72
2018-01-12T11:55:06.661Z,1044.68
2018-01-12T11:56:06.655Z,1044.65
2018-01-12T11:57:06.625Z,1044.58
2018-01-12T11:58:06.606Z,1044.55
2018-01-12T11:59:06.609Z,1044.51
2018-01-12T12:00:06.579Z,1044.5
2018-01-12T12:01:06.568Z,1044.49
2018-01-12T12:02:06.555Z,1044.45
2018-01-12T12:03:06.537Z,1044.46
2018-01-12T12:04:06.525Z,1044.47
2018-01-12T12:05:06.511Z,1044.47
2018-01-12T12:06:06.495Z,1044.47
2018-01-12T12:07:06.482Z,1044.48
2018-01-12T12:08:06.471Z,1044.48